createdAt,value
2022-11-24T00:01:23.819Z,72.44
2022-11-24T00:03:58.148Z,72.53
2022-11-24T00:06:31.109Z,72.53
2022-11-24T00:09:04.087Z,72.28
2022-11-24T00:11:37.227Z,72.12
2022-11-24T00:14:09.300Z,72.13
2022-11-24T00:16:41.257Z,72.11
2022-11-24T00:19:18.382Z,72.25
2022-11-24T00:21:52.643Z,72.34
2022-11-24T00:24:24.439Z,72.56
2022-11-24T00:26:56.612Z,72.43
2022-11-24T00:29:28.402Z,72.44
2022-11-24T00:32:01.991Z,72.16
2022-11-24T00:34:34.503Z,72.39
2022-11-24T00:37:06.428Z,72.43
2022-11-24T00:39:38.169Z,72.46
2022-11-24T00:42:09.866Z,72.52
2022-11-24T00:44:41.700Z,72.60
2022-11-24T00:47:13.532Z,72.68
2022-11-24T00:49:45.385Z,72.59
2022-11-24T00:52:17.110Z,72.48
2022-11-24T00:54:48.880Z,72.73
2022-11-24T00:57:23.286Z,72.64
2022-11-24T00:59:55.066Z,72.47
2022-11-24T01:02:27.657Z,72.33
2022-11-24T01:05:00.374Z,72.31
2022-11-24T01:07:33.224Z,72.35
2022-11-24T01:10:05.632Z,72.34
2022-11-24T01:12:38.149Z,72.41
2022-11-24T01:15:11.040Z,72.38
2022-11-24T01:17:42.999Z,72.53
2022-11-24T01:20:15.497Z,72.65
2022-11-24T01:22:48.661Z,72.47
2022-11-24T01:25:20.363Z,72.41
2022-11-24T01:27:52.615Z,72.63
2022-11-24T01:30:24.438Z,72.61
2022-11-24T01:32:56.777Z,72.59
2022-11-24T01:35:29.033Z,72.64
2022-11-24T01:38:00.830Z,72.73
2022-11-24T01:40:32.570Z,72.37
2022-11-24T01:43:04.263Z,72.57
2022-11-24T01:45:41.043Z,73.12
2022-11-24T01:48:25.956Z,72.83
2022-11-24T01:51:08.451Z,72.75
2022-11-24T01:53:43.117Z,73.18
2022-11-24T01:56:16.127Z,73.72
2022-11-24T01:58:51.691Z,73.49
2022-11-24T02:01:23.882Z,73.37
2022-11-24T02:03:58.157Z,73.51
2022-11-24T02:06:32.998Z,73.41
2022-11-24T02:09:09.064Z,73.46
2022-11-24T02:11:44.499Z,73.21
2022-11-24T02:14:19.154Z,73.03
2022-11-24T02:16:51.761Z,72.97
2022-11-24T02:19:32.736Z,72.97
2022-11-24T02:22:05.631Z,72.84
2022-11-24T02:24:48.249Z,72.65
2022-11-24T02:27:21.040Z,72.50
2022-11-24T02:29:53.133Z,72.38
2022-11-24T02:32:25.917Z,72.68
2022-11-24T02:35:04.099Z,72.69
2022-11-24T02:37:36.828Z,72.85
2022-11-24T02:40:11.611Z,72.93
2022-11-24T02:42:47.017Z,72.77
2022-11-24T02:45:19.758Z,72.59
2022-11-24T02:47:54.510Z,72.80
2022-11-24T02:50:26.517Z,72.55
2022-11-24T02:52:58.299Z,72.49
2022-11-24T02:55:30.303Z,72.35
2022-11-24T02:58:02.287Z,72.15
2022-11-24T03:00:34.172Z,72.26
2022-11-24T03:03:06.578Z,72.36
2022-11-24T03:05:38.462Z,72.28
2022-11-24T03:08:11.371Z,72.47
2022-11-24T03:10:43.327Z,72.38
2022-11-24T03:13:15.170Z,72.44
2022-11-24T03:15:47.023Z,72.71
2022-11-24T03:18:18.847Z,72.63
2022-11-24T03:20:50.757Z,72.42
2022-11-24T03:23:22.649Z,72.47
2022-11-24T03:25:54.796Z,72.46
2022-11-24T03:28:26.538Z,72.30
2022-11-24T03:30:58.458Z,72.26
2022-11-24T03:33:32.475Z,72.12
2022-11-24T03:36:05.092Z,72.08
2022-11-24T03:38:37.176Z,72.09
2022-11-24T03:41:09.263Z,72.16
2022-11-24T03:43:44.116Z,71.99
2022-11-24T03:46:16.309Z,71.95
2022-11-24T03:48:48.011Z,71.80
2022-11-24T03:51:19.788Z,71.85
2022-11-24T03:53:51.722Z,71.84
2022-11-24T03:56:23.744Z,71.75
2022-11-24T03:58:56.717Z,71.86
2022-11-24T04:01:28.724Z,72.04
2022-11-24T04:04:00.557Z,72.07
2022-11-24T04:06:32.704Z,71.85
2022-11-24T04:09:04.909Z,71.84
2022-11-24T04:11:54.213Z,71.70
2022-11-24T04:14:26.063Z,71.61
2022-11-24T04:16:57.918Z,71.55
2022-11-24T04:19:30.378Z,71.67
2022-11-24T04:22:02.611Z,71.65
2022-11-24T04:24:34.527Z,71.54
2022-11-24T04:27:06.622Z,71.71
2022-11-24T04:29:38.340Z,71.61
2022-11-24T04:32:10.150Z,71.74
2022-11-24T04:34:42.025Z,71.57
2022-11-24T04:37:14.122Z,71.53
2022-11-24T04:39:46.565Z,71.54
2022-11-24T04:42:18.372Z,71.64
2022-11-24T04:44:50.260Z,71.61
2022-11-24T04:47:24.233Z,71.65
2022-11-24T04:49:56.688Z,71.66
2022-11-24T04:52:31.632Z,71.65
2022-11-24T04:55:03.422Z,71.68
2022-11-24T04:57:35.463Z,71.71
2022-11-24T05:00:08.871Z,71.81
2022-11-24T05:02:40.958Z,71.78
2022-11-24T05:05:13.613Z,71.81
2022-11-24T05:07:47.968Z,71.88
2022-11-24T05:10:38.785Z,72.00
2022-11-24T05:13:14.397Z,71.86
2022-11-24T05:15:46.903Z,71.92
2022-11-24T05:18:22.381Z,71.64
2022-11-24T05:20:54.936Z,71.62
2022-11-24T05:23:27.423Z,71.50
2022-11-24T05:26:02.826Z,71.55
2022-11-24T05:28:34.957Z,71.42
2022-11-24T05:31:07.200Z,71.50
2022-11-24T05:33:39.601Z,71.40
2022-11-24T05:36:33.246Z,71.50
2022-11-24T05:39:05.390Z,71.44
2022-11-24T05:41:37.566Z,71.32
2022-11-24T05:44:09.542Z,71.39
2022-11-24T05:46:41.584Z,71.53
2022-11-24T05:49:13.566Z,71.31
2022-11-24T05:51:45.396Z,71.59
2022-11-24T05:54:17.401Z,71.52
2022-11-24T05:56:49.150Z,71.56
2022-11-24T05:59:21.083Z,71.60
2022-11-24T06:01:52.917Z,71.79
2022-11-24T06:04:25.184Z,71.76
2022-11-24T06:06:57.695Z,71.67
2022-11-24T06:09:30.141Z,71.77
2022-11-24T06:12:03.617Z,71.79
2022-11-24T06:14:35.946Z,71.77
2022-11-24T06:17:10.912Z,71.88
2022-11-24T06:19:45.611Z,71.78
2022-11-24T06:22:17.699Z,72.00
2022-11-24T06:24:54.052Z,71.95
2022-11-24T06:27:26.074Z,71.79
2022-11-24T06:29:58.722Z,71.97
2022-11-24T06:32:31.320Z,71.92
2022-11-24T06:35:03.425Z,72.06
2022-11-24T06:37:40.753Z,72.13
2022-11-24T06:40:16.876Z,71.80
2022-11-24T06:42:54.015Z,72.03
2022-11-24T06:45:26.041Z,71.91
2022-11-24T06:48:02.468Z,72.05
2022-11-24T06:50:37.647Z,72.21
2022-11-24T06:53:10.006Z,72.15
2022-11-24T06:55:45.052Z,72.05
2022-11-24T06:58:20.790Z,71.92
2022-11-24T07:00:53.133Z,72.03
2022-11-24T07:03:25.897Z,72.02
2022-11-24T07:06:00.445Z,72.01
2022-11-24T07:08:32.300Z,71.94
2022-11-24T07:11:07.802Z,71.93
2022-11-24T07:13:40.171Z,71.97
2022-11-24T07:16:20.633Z,71.85
2022-11-24T07:18:54.326Z,71.70
2022-11-24T07:21:27.442Z,71.81
2022-11-24T07:24:00.049Z,71.70
2022-11-24T07:26:37.208Z,71.74
2022-11-24T07:29:08.981Z,72.01
2022-11-24T07:31:40.844Z,72.37
2022-11-24T07:34:14.711Z,72.14
2022-11-24T07:36:46.825Z,72.13
2022-11-24T07:39:18.718Z,72.12
2022-11-24T07:41:50.593Z,72.09
2022-11-24T07:44:22.762Z,72.19
2022-11-24T07:46:54.655Z,72.22
2022-11-24T07:49:26.448Z,72.17
2022-11-24T07:51:58.297Z,72.04
2022-11-24T07:54:30.008Z,72.31
2022-11-24T07:57:01.746Z,72.39
2022-11-24T07:59:33.574Z,72.44
2022-11-24T08:02:05.687Z,72.87
2022-11-24T08:04:39.237Z,72.71
2022-11-24T08:07:11.154Z,72.48
2022-11-24T08:09:42.968Z,72.25
2022-11-24T08:12:17.628Z,72.39
2022-11-24T08:14:50.503Z,72.46
2022-11-24T08:17:22.397Z,72.33
2022-11-24T08:19:54.103Z,72.23
2022-11-24T08:22:25.913Z,72.08
2022-11-24T08:24:57.611Z,72.15
2022-11-24T08:27:30.970Z,71.88
2022-11-24T08:30:02.662Z,71.49
2022-11-24T08:32:34.648Z,71.53
2022-11-24T08:35:14.759Z,71.57
2022-11-24T08:37:47.523Z,71.75
2022-11-24T08:40:19.961Z,71.86
2022-11-24T08:42:53.020Z,71.86
2022-11-24T08:45:25.813Z,71.78
2022-11-24T08:47:58.541Z,71.38
2022-11-24T08:50:30.203Z,71.30
2022-11-24T08:53:01.917Z,71.53
2022-11-24T08:55:33.628Z,71.45
2022-11-24T08:58:05.402Z,71.18
2022-11-24T09:00:37.175Z,71.15
2022-11-24T09:03:11.994Z,71.34
2022-11-24T09:05:51.633Z,71.17
2022-11-24T09:08:24.234Z,71.24
2022-11-24T09:10:59.799Z,71.39
2022-11-24T09:13:32.566Z,70.91
2022-11-24T09:16:08.111Z,70.57
2022-11-24T09:18:40.336Z,70.81
2022-11-24T09:21:13.863Z,71.03
2022-11-24T09:23:47.317Z,71.46
2022-11-24T09:26:22.720Z,71.19
2022-11-24T09:28:56.236Z,71.35
2022-11-24T09:31:29.532Z,71.11
2022-11-24T09:34:01.744Z,71.11
2022-11-24T09:36:33.587Z,71.44
2022-11-24T09:39:05.626Z,71.29
2022-11-24T09:41:45.816Z,71.36
2022-11-24T09:44:48.330Z,71.28
2022-11-24T09:47:29.757Z,71.31
2022-11-24T09:50:05.133Z,71.31
2022-11-24T09:52:47.415Z,71.15
2022-11-24T09:55:37.736Z,71.48
2022-11-24T09:58:36.583Z,71.44
2022-11-24T10:01:17.425Z,71.86
2022-11-24T10:03:51.840Z,71.87
2022-11-24T10:06:27.359Z,71.64
2022-11-24T10:09:12.558Z,71.21
2022-11-24T10:11:56.607Z,71.35
2022-11-24T10:14:46.748Z,71.45
2022-11-24T10:17:30.317Z,71.06
2022-11-24T10:20:10.725Z,71.54
2022-11-24T10:22:52.664Z,71.51
2022-11-24T10:25:31.747Z,71.42
2022-11-24T10:28:06.329Z,71.09
2022-11-24T10:30:38.521Z,70.99
2022-11-24T10:33:18.600Z,70.93
2022-11-24T10:35:54.782Z,70.84
2022-11-24T10:38:36.398Z,71.23
2022-11-24T10:41:14.560Z,71.23
2022-11-24T10:43:46.621Z,71.26
2022-11-24T10:46:24.084Z,71.24
2022-11-24T10:49:01.436Z,71.21
2022-11-24T10:51:59.452Z,71.07
2022-11-24T10:54:31.445Z,71.21
2022-11-24T10:57:03.412Z,71.38
2022-11-24T10:59:40.392Z,71.39
2022-11-24T11:02:36.569Z,71.75
2022-11-24T11:05:43.034Z,71.54
2022-11-24T11:08:26.650Z,71.21
2022-11-24T11:11:19.408Z,70.87
2022-11-24T11:14:03.447Z,70.86
2022-11-24T11:16:39.563Z,71.07
2022-11-24T11:19:53.153Z,70.97
2022-11-24T11:22:31.203Z,71.05
2022-11-24T11:25:22.636Z,71.19
2022-11-24T11:28:19.475Z,71.18
2022-11-24T11:31:19.078Z,71.29
2022-11-24T11:34:06.224Z,71.00
2022-11-24T11:36:45.044Z,70.90
2022-11-24T11:39:24.815Z,70.64
2022-11-24T11:42:07.616Z,70.45
2022-11-24T11:44:43.121Z,70.35
2022-11-24T11:47:26.187Z,70.47
2022-11-24T11:49:59.035Z,70.41
2022-11-24T11:52:45.974Z,70.55
2022-11-24T11:55:49.891Z,70.62
2022-11-24T11:58:49.401Z,70.88
2022-11-24T12:01:39.538Z,71.00
2022-11-24T12:04:22.068Z,71.05
2022-11-24T12:07:22.956Z,70.87
2022-11-24T12:10:04.294Z,70.95
2022-11-24T12:12:50.301Z,71.30
2022-11-24T12:15:29.950Z,70.92
2022-11-24T12:18:33.486Z,70.82
2022-11-24T12:21:21.345Z,70.90
2022-11-24T12:24:09.241Z,70.71
2022-11-24T12:26:46.902Z,70.75
2022-11-24T12:29:45.028Z,70.76
2022-11-24T12:32:32.361Z,70.55
2022-11-24T12:35:16.987Z,70.92
2022-11-24T12:37:59.291Z,71.07
2022-11-24T12:40:46.963Z,71.04
2022-11-24T12:43:27.990Z,71.18
2022-11-24T12:46:06.018Z,71.15
2022-11-24T12:48:51.036Z,70.96
2022-11-24T12:51:28.919Z,70.83
2022-11-24T12:54:04.109Z,71.02
2022-11-24T12:56:43.558Z,71.09
2022-11-24T12:59:28.648Z,70.93
2022-11-24T13:02:04.167Z,70.90
2022-11-24T13:04:37.977Z,70.98
2022-11-24T13:07:16.119Z,71.03
2022-11-24T13:10:18.866Z,70.94
2022-11-24T13:12:58.652Z,70.87
2022-11-24T13:15:45.803Z,70.82
2022-11-24T13:18:48.636Z,71.18
2022-11-24T13:21:52.055Z,71.30
2022-11-24T13:24:27.766Z,71.25
2022-11-24T13:27:41.940Z,71.27
2022-11-24T13:30:50.915Z,70.98
2022-11-24T13:33:38.256Z,71.34
2022-11-24T13:36:54.768Z,71.38
2022-11-24T13:39:50.647Z,70.98
2022-11-24T13:42:41.639Z,70.83
2022-11-24T13:45:50.718Z,70.77
2022-11-24T13:48:59.752Z,70.96
2022-11-24T13:51:32.140Z,70.93
2022-11-24T13:54:04.389Z,70.82
2022-11-24T13:56:36.820Z,70.79
2022-11-24T13:59:25.391Z,70.85
2022-11-24T14:02:20.623Z,70.70
2022-11-24T14:04:52.862Z,70.65
2022-11-24T14:07:24.914Z,70.64
2022-11-24T14:09:56.689Z,70.92
2022-11-24T14:12:33.787Z,71.03
2022-11-24T14:15:24.515Z,71.11
2022-11-24T14:17:56.277Z,71.19
2022-11-24T14:20:30.131Z,71.00
2022-11-24T14:23:01.937Z,70.81
2022-11-24T14:25:35.597Z,71.00
2022-11-24T14:28:16.399Z,71.03
2022-11-24T14:30:48.206Z,71.22
2022-11-24T14:33:21.545Z,71.13
2022-11-24T14:35:53.531Z,71.36
2022-11-24T14:38:25.337Z,71.11
2022-11-24T14:40:57.893Z,71.19
2022-11-24T14:43:31.878Z,70.98
2022-11-24T14:46:07.257Z,70.95
2022-11-24T14:48:47.771Z,71.20
2022-11-24T14:51:24.840Z,71.02
2022-11-24T14:54:00.503Z,71.06
2022-11-24T14:56:35.860Z,71.06
2022-11-24T14:59:24.729Z,71.11
2022-11-24T15:01:57.952Z,71.07
2022-11-24T15:05:02.036Z,71.19
2022-11-24T15:07:29.069Z,71.02
2022-11-24T15:10:03.798Z,70.93
2022-11-24T15:12:39.973Z,70.91
2022-11-24T15:15:22.227Z,71.00
2022-11-24T15:17:57.161Z,71.15
2022-11-24T15:20:32.165Z,71.28
2022-11-24T15:23:24.485Z,71.22
2022-11-24T15:25:57.127Z,71.29
2022-11-24T15:28:29.811Z,71.18
2022-11-24T15:31:05.220Z,71.08
2022-11-24T15:33:37.389Z,71.26
2022-11-24T15:36:11.697Z,71.34
2022-11-24T15:38:43.497Z,71.35
2022-11-24T15:41:20.891Z,71.35
2022-11-24T15:43:58.869Z,71.43
2022-11-24T15:46:38.059Z,71.56
2022-11-24T15:49:10.240Z,71.62
2022-11-24T15:51:44.323Z,71.64
2022-11-24T15:54:18.432Z,71.55
2022-11-24T15:56:50.220Z,71.60
2022-11-24T15:59:22.187Z,71.62
2022-11-24T16:01:54.142Z,71.42
2022-11-24T16:04:25.963Z,71.44
2022-11-24T16:06:57.762Z,71.50
2022-11-24T16:09:29.502Z,71.54
2022-11-24T16:12:02.122Z,71.52
2022-11-24T16:14:34.182Z,71.58
2022-11-24T16:17:06.432Z,71.79
2022-11-24T16:19:41.853Z,71.88
2022-11-24T16:22:14.036Z,71.93
2022-11-24T16:24:46.021Z,72.19
2022-11-24T16:27:17.984Z,72.41
2022-11-24T16:29:49.899Z,72.27
2022-11-24T16:32:21.814Z,72.56
2022-11-24T16:34:53.994Z,72.58
2022-11-24T16:37:25.940Z,72.49
2022-11-24T16:39:58.499Z,72.51
2022-11-24T16:42:30.794Z,72.41
2022-11-24T16:45:02.621Z,72.44
2022-11-24T16:47:39.474Z,72.49
2022-11-24T16:50:13.336Z,72.59
2022-11-24T16:52:45.417Z,72.66
2022-11-24T16:55:17.527Z,72.64
2022-11-24T16:57:49.672Z,72.70
2022-11-24T17:00:23.177Z,72.73
2022-11-24T17:02:55.298Z,72.86
2022-11-24T17:05:27.705Z,72.81
2022-11-24T17:08:02.416Z,72.95
2022-11-24T17:10:34.234Z,73.02
2022-11-24T17:13:06.174Z,72.93
2022-11-24T17:15:46.219Z,73.32
2022-11-24T17:18:25.525Z,73.37
2022-11-24T17:21:05.991Z,73.36
2022-11-24T17:23:41.414Z,73.42
2022-11-24T17:26:15.856Z,73.53
2022-11-24T17:28:46.743Z,73.74
2022-11-24T17:31:23.696Z,73.56
2022-11-24T17:33:57.908Z,73.71
2022-11-24T17:36:31.444Z,73.84
2022-11-24T17:39:05.012Z,73.73
2022-11-24T17:41:37.366Z,73.91
2022-11-24T17:44:10.701Z,73.74
2022-11-24T17:46:42.953Z,73.68
2022-11-24T17:49:15.142Z,73.66
2022-11-24T17:51:50.425Z,73.70
2022-11-24T17:54:45.442Z,73.78
2022-11-24T17:57:14.388Z,73.87
2022-11-24T17:59:46.331Z,73.77
2022-11-24T18:02:18.587Z,73.83
2022-11-24T18:04:50.704Z,74.14
2022-11-24T18:07:22.846Z,74.22
2022-11-24T18:09:54.799Z,74.15
2022-11-24T18:12:26.618Z,74.16
2022-11-24T18:14:58.602Z,74.14
2022-11-24T18:17:30.554Z,74.22
2022-11-24T18:20:02.444Z,74.04
2022-11-24T18:23:03.890Z,74.01
2022-11-24T18:25:26.975Z,73.97
2022-11-24T18:27:59.073Z,73.99
2022-11-24T18:30:31.274Z,74.02
2022-11-24T18:33:03.381Z,74.05
2022-11-24T18:35:35.479Z,73.85
2022-11-24T18:38:08.082Z,73.80
2022-11-24T18:40:41.901Z,73.93
2022-11-24T18:43:14.918Z,73.86
2022-11-24T18:45:47.532Z,74.28
2022-11-24T18:48:19.884Z,74.16
2022-11-24T18:50:54.631Z,74.19
2022-11-24T18:53:57.965Z,74.04
2022-11-24T18:56:30.513Z,74.11
2022-11-24T18:59:02.705Z,74.15
2022-11-24T19:01:34.680Z,74.09
2022-11-24T19:04:06.980Z,73.92
2022-11-24T19:06:40.047Z,73.98
2022-11-24T19:09:15.160Z,74.05
2022-11-24T19:11:48.205Z,74.03
2022-11-24T19:14:20.759Z,74.04
2022-11-24T19:16:52.812Z,74.14
2022-11-24T19:19:24.777Z,74.23
2022-11-24T19:21:56.995Z,74.21
2022-11-24T19:24:30.024Z,74.22
2022-11-24T19:27:02.750Z,74.27
2022-11-24T19:29:37.859Z,74.27
2022-11-24T19:32:12.534Z,74.28
2022-11-24T19:34:44.699Z,74.15
2022-11-24T19:37:16.700Z,74.22
2022-11-24T19:39:48.484Z,74.24
2022-11-24T19:42:20.550Z,74.32
2022-11-24T19:44:56.440Z,74.31
2022-11-24T19:47:29.101Z,74.35
2022-11-24T19:50:02.912Z,74.14
2022-11-24T19:52:38.113Z,74.30
2022-11-24T19:55:10.889Z,74.40
2022-11-24T19:57:42.776Z,74.45
2022-11-24T20:00:16.914Z,74.64
2022-11-24T20:02:50.407Z,74.61
2022-11-24T20:05:22.852Z,74.61
2022-11-24T20:07:54.933Z,74.36
2022-11-24T20:10:27.076Z,74.20
2022-11-24T20:12:59.265Z,74.47
2022-11-24T20:15:31.096Z,74.55
2022-11-24T20:18:02.952Z,74.45
2022-11-24T20:20:35.735Z,74.31
2022-11-24T20:23:07.988Z,74.20
2022-11-24T20:25:40.453Z,74.16
2022-11-24T20:28:12.287Z,74.15
2022-11-24T20:30:44.525Z,74.19
2022-11-24T20:33:16.307Z,74.19
2022-11-24T20:35:48.176Z,74.30
2022-11-24T20:38:20.421Z,74.16
2022-11-24T20:40:52.202Z,74.20
2022-11-24T20:43:24.364Z,74.17
2022-11-24T20:45:56.214Z,74.37
2022-11-24T20:48:28.143Z,74.47
2022-11-24T20:51:05.816Z,74.20
2022-11-24T20:53:38.641Z,74.26
2022-11-24T20:56:12.693Z,74.24
2022-11-24T20:58:44.611Z,74.13
2022-11-24T21:01:18.841Z,74.33
2022-11-24T21:03:55.884Z,74.52
2022-11-24T21:06:28.627Z,74.45
2022-11-24T21:09:03.987Z,74.38
2022-11-24T21:11:36.502Z,74.32
2022-11-24T21:14:09.720Z,74.49
2022-11-24T21:16:43.313Z,74.52
2022-11-24T21:19:18.473Z,74.58
2022-11-24T21:21:50.691Z,74.60
2022-11-24T21:24:22.730Z,74.68
2022-11-24T21:26:54.823Z,74.64
2022-11-24T21:29:27.063Z,74.53
2022-11-24T21:32:01.335Z,74.37
2022-11-24T21:34:34.081Z,74.36
2022-11-24T21:37:07.256Z,74.40
2022-11-24T21:39:40.973Z,74.30
2022-11-24T21:42:14.661Z,74.33
2022-11-24T21:44:47.117Z,74.38
2022-11-24T21:47:19.107Z,74.29
2022-11-24T21:49:51.727Z,74.16
2022-11-24T21:52:23.918Z,74.26
2022-11-24T21:54:55.790Z,74.35
2022-11-24T21:57:29.005Z,74.48
2022-11-24T22:00:01.194Z,74.48
2022-11-24T22:02:38.858Z,74.30
2022-11-24T22:05:11.856Z,74.35
2022-11-24T22:07:43.853Z,74.43
2022-11-24T22:10:16.771Z,74.55
2022-11-24T22:12:49.332Z,74.35
2022-11-24T22:15:21.353Z,74.31
2022-11-24T22:17:53.086Z,74.39
2022-11-24T22:20:25.016Z,74.46
2022-11-24T22:22:56.847Z,74.26
2022-11-24T22:25:28.675Z,74.32
2022-11-24T22:28:00.914Z,74.19
2022-11-24T22:30:32.766Z,74.25
2022-11-24T22:33:04.626Z,74.32
2022-11-24T22:35:36.476Z,74.30
2022-11-24T22:38:08.324Z,74.20
2022-11-24T22:40:40.313Z,74.21
2022-11-24T22:43:12.532Z,73.86
2022-11-24T22:45:44.393Z,74.26
2022-11-24T22:48:16.358Z,74.34
2022-11-24T22:50:48.135Z,74.37
2022-11-24T22:53:20.030Z,74.42
2022-11-24T22:55:51.890Z,74.35
2022-11-24T22:58:23.711Z,74.57
2022-11-24T23:00:55.736Z,74.29
2022-11-24T23:03:27.959Z,74.41
2022-11-24T23:06:03.080Z,74.47
2022-11-24T23:08:37.229Z,74.38
2022-11-24T23:11:11.318Z,74.53
2022-11-24T23:13:43.826Z,74.37
2022-11-24T23:16:17.956Z,74.28
2022-11-24T23:18:53.927Z,74.38
2022-11-24T23:21:27.533Z,74.34
2022-11-24T23:24:01.852Z,74.37
2022-11-24T23:26:36.380Z,73.97
2022-11-24T23:29:09.261Z,74.58
2022-11-24T23:31:41.276Z,74.67
2022-11-24T23:34:13.169Z,74.89
2022-11-24T23:36:45.144Z,74.89
2022-11-24T23:39:17.174Z,74.99
2022-11-24T23:41:49.180Z,75.33
2022-11-24T23:44:22.246Z,75.73
2022-11-24T23:46:55.966Z,75.64
2022-11-24T23:49:29.848Z,74.73
2022-11-24T23:52:02.430Z,74.52
2022-11-24T23:54:34.569Z,74.53
2022-11-24T23:57:06.720Z,74.70
2022-11-24T23:59:38.540Z,75.09
